Accueil
METAR-TAF:

METAR-TAF

Aéroports :

Ankara Güvercinlik, Turquie

latitude: 39-56N, longitude: 032-45E, altitude: 819 m

METAR: absent

Heure: 19:29 (16:29 UTC)

Prévision

Le bulletin a été fait il y a 2 heures et 49 minutes, à 13:40 UTC
Prévision valable du 14 à 15 UTC au 14 à 24 UTC
Vent 2 kt de direction variable
Visibilité 10 km ou plus
pas de nuages en-dessous de 1500 mètres et pas de cumulonimbus.
Evoluant progressivement
du 14 à 15 UTC au 14 à 17 UTC
Nuages épars à une hauteur de 4000 ft
Nuages fragmentés à une hauteur de 10000 ft

TAF: LTAB 141340Z 1415/1424 VRB02KT CAVOK BECMG 1415/1417 SCT040 BKN100

Observations et prévisions météorologiques de plus de 4000 aéroports (messages METAR et TAF).

Les stations disponibles sont représentées par des disques jaunes et rouges sur la carte.

Passer la souris dessus pour voir le nom de la station.

Cliquer dessus pour voir les observations et prévisions météorologiques.

Pour changer de carte: cliquez sur les boutons verts avec une croix noire pour zoomer, sur le bouton vert avec un tiret pour effectuer un zoom arrière, ou sur les flèches vertes pour les cartes adjacentes.


METAR-TAF: